Time;durP1;ratioP1;P1;durP2;ratioP2;P2;SDS_P1;SDS_P2;PMS_P1;PMS_P2;Temp;Humidity;BMP_temperature;BMP_pressure;BME280_temperature;BME280_humidity;BME280_pressure;Samples;Min_cycle;Max_cycle;Signal;HPM_P1;HPM_P2
2022/05/13 00:01:27;;;;;;;4.00;1.70;;;16.00;72.20;;;;;;5046855;28;20235;-66
2022/05/13 00:03:52;;;;;;;5.72;1.80;;;15.90;72.20;;;;;;5038098;28;20197;-65
2022/05/13 00:06:23;;;;;;;4.82;1.95;;;15.90;72.50;;;;;;5059168;28;20185;-66
2022/05/13 00:08:48;;;;;;;4.03;1.58;;;15.80;72.50;;;;;;5040142;28;20210;-65
2022/05/13 00:11:14;;;;;;;2.38;1.40;;;15.80;72.70;;;;;;5049564;28;20188;-65
2022/05/13 00:13:40;;;;;;;2.30;1.20;;;15.80;72.70;;;;;;5036401;28;20189;-65
2022/05/13 00:16:06;;;;;;;2.30;1.20;;;15.70;72.80;;;;;;5050644;28;20234;-65
2022/05/13 00:18:34;;;;;;;2.33;1.17;;;15.70;73.10;;;;;;5042025;28;20185;-67
2022/05/13 00:21:00;;;;;;;1.50;0.98;;;15.70;73.20;;;;;;5051092;28;20178;-65
2022/05/13 00:23:32;;;;;;;2.03;0.90;;;15.60;73.10;;;;;;5054722;28;20194;-67
2022/05/13 00:25:58;;;;;;;3.50;1.10;;;15.60;73.20;;;;;;5055361;28;20203;-64
2022/05/13 00:28:24;;;;;;;2.20;1.10;;;15.60;73.30;;;;;;5057574;28;20189;-65
2022/05/13 00:30:52;;;;;;;2.50;1.13;;;15.60;73.50;;;;;;5050275;28;20197;-65
2022/05/13 00:33:19;;;;;;;3.50;1.20;;;15.50;73.30;;;;;;5036907;28;20178;-65
2022/05/13 00:35:45;;;;;;;4.30;1.63;;;15.50;73.80;;;;;;5052705;28;20275;-65
2022/05/13 00:38:11;;;;;;;5.95;1.25;;;15.40;73.80;;;;;;5059860;28;20196;-65
2022/05/13 00:40:37;;;;;;;2.42;0.93;;;15.40;74.00;;;;;;5045504;28;20182;-65
2022/05/13 00:43:06;;;;;;;2.55;1.30;;;15.40;74.20;;;;;;5053707;28;20177;-65
2022/05/13 00:45:33;;;;;;;2.30;1.10;;;15.30;74.70;;;;;;5045497;28;20185;-65
2022/05/13 00:48:00;;;;;;;3.63;1.20;;;15.30;74.70;;;;;;5054535;28;20212;-65
2022/05/13 00:50:27;;;;;;;5.20;1.20;;;15.20;74.90;;;;;;5035852;28;20224;-65
2022/05/13 00:52:53;;;;;;;3.15;1.33;;;15.10;75.70;;;;;;5042535;28;20184;-66
2022/05/13 00:55:38;;;;;;;2.25;1.23;;;15.10;75.30;;;;;;5053030;28;20248;-65
2022/05/13 00:58:11;;;;;;;1.85;0.82;;;15.00;76.30;;;;;;5056501;28;20214;-65
2022/05/13 01:00:41;;;;;;;3.35;1.17;;;15.00;75.80;;;;;;5039164;28;20260;-66
2022/05/13 01:03:07;;;;;;;4.78;1.33;;;14.90;76.20;;;;;;5046143;28;20192;-66
2022/05/13 01:05:34;;;;;;;2.72;1.30;;;14.90;76.10;;;;;;5053023;28;20185;-65
2022/05/13 01:08:07;;;;;;;2.05;1.00;;;14.80;76.40;;;;;;5044842;28;20233;-64
2022/05/13 01:10:36;;;;;;;2.30;1.10;;;14.80;76.90;;;;;;5062470;28;20190;-65
2022/05/13 01:13:07;;;;;;;4.40;1.55;;;14.80;77.10;;;;;;5050160;28;20174;-65
2022/05/13 01:15:35;;;;;;;2.25;1.10;;;14.70;77.90;;;;;;5046050;28;20180;-66
2022/05/13 01:18:07;;;;;;;2.05;1.10;;;14.70;77.40;;;;;;5045306;28;20199;-65
2022/05/13 01:20:42;;;;;;;2.38;0.90;;;14.70;77.50;;;;;;5048361;28;20209;-64
2022/05/13 01:23:17;;;;;;;2.15;0.90;;;14.60;77.60;;;;;;5049686;28;20275;-65
2022/05/13 01:25:51;;;;;;;1.48;0.90;;;14.60;78.60;;;;;;5080538;28;20221;-65
2022/05/13 01:28:22;;;;;;;2.65;0.90;;;14.60;78.80;;;;;;5051384;28;20200;-64
2022/05/13 01:30:51;;;;;;;1.83;0.98;;;14.70;78.60;;;;;;5041094;28;20412;-63
2022/05/13 01:33:18;;;;;;;3.33;1.30;;;14.70;78.70;;;;;;5045247;28;20189;-63
2022/05/13 01:35:49;;;;;;;4.30;1.20;;;14.70;78.50;;;;;;5061364;28;20173;-63
2022/05/13 01:38:23;;;;;;;1.73;0.90;;;14.70;78.80;;;;;;5054794;28;20440;-62
2022/05/13 01:40:48;;;;;;;2.13;0.85;;;14.70;79.00;;;;;;5055814;28;20281;-63
2022/05/13 01:43:14;;;;;;;2.13;0.95;;;14.60;78.60;;;;;;5051423;28;20275;-64
2022/05/13 01:45:40;;;;;;;2.22;1.20;;;14.60;78.80;;;;;;5056579;28;20173;-63
2022/05/13 01:48:07;;;;;;;3.83;0.90;;;14.60;79.10;;;;;;5044329;28;20277;-64
2022/05/13 01:50:36;;;;;;;3.67;1.10;;;14.60;79.30;;;;;;5051333;28;20217;-64
2022/05/13 01:53:02;;;;;;;1.90;0.90;;;14.50;79.30;;;;;;5050747;28;20174;-64
2022/05/13 01:55:30;;;;;;;1.77;0.98;;;14.50;79.50;;;;;;5046723;28;20326;-63
2022/05/13 01:57:58;;;;;;;2.95;1.13;;;14.40;79.70;;;;;;5056346;28;20216;-63
2022/05/13 02:00:29;;;;;;;2.25;0.90;;;14.40;80.10;;;;;;5057674;28;20188;-64
2022/05/13 02:05:41;;;;;;;3.35;1.33;;;14.40;80.50;;;;;;5036398;28;20177;-63
2022/05/13 02:08:12;;;;;;;2.03;1.25;;;14.30;80.50;;;;;;5088287;28;20202;-63
2022/05/13 02:10:37;;;;;;;2.33;1.10;;;14.30;80.70;;;;;;5069489;28;20194;-63
2022/05/13 02:13:03;;;;;;;1.92;1.10;;;14.30;81.20;;;;;;5039425;28;20180;-63
2022/05/13 02:15:31;;;;;;;4.07;1.20;;;14.20;81.10;;;;;;5053632;28;20177;-63
2022/05/13 02:17:56;;;;;;;2.75;1.10;;;14.20;81.90;;;;;;5054307;28;20225;-63
2022/05/13 02:20:24;;;;;;;3.80;1.40;;;14.20;81.60;;;;;;5047156;28;20216;-63
2022/05/13 02:22:52;;;;;;;3.47;1.25;;;14.20;81.90;;;;;;5043959;28;20178;-63
2022/05/13 02:25:18;;;;;;;1.63;0.98;;;14.10;81.90;;;;;;5052147;28;20202;-63
2022/05/13 02:27:44;;;;;;;2.38;0.90;;;14.10;82.30;;;;;;5051319;28;20223;-64
2022/05/13 02:30:13;;;;;;;3.17;1.15;;;14.00;82.40;;;;;;5052057;28;20197;-64
2022/05/13 02:32:38;;;;;;;2.95;1.20;;;14.00;82.50;;;;;;5049492;28;20177;-63
2022/05/13 02:35:05;;;;;;;2.38;1.23;;;13.90;82.50;;;;;;5059546;28;20180;-64
2022/05/13 02:37:33;;;;;;;1.83;1.30;;;13.90;83.00;;;;;;5054795;28;20319;-62
2022/05/13 02:39:59;;;;;;;4.65;1.13;;;13.90;83.10;;;;;;5055149;28;20185;-64
2022/05/13 02:42:24;;;;;;;1.98;1.23;;;13.90;83.40;;;;;;5067811;28;20181;-63
2022/05/13 02:44:53;;;;;;;3.17;1.38;;;13.80;83.70;;;;;;5034655;28;20201;-64
2022/05/13 02:47:20;;;;;;;2.72;1.20;;;13.80;84.60;;;;;;5050867;28;20197;-64
2022/05/13 02:49:46;;;;;;;3.33;1.48;;;13.80;84.50;;;;;;5046086;28;20174;-63
2022/05/13 02:52:14;;;;;;;4.28;1.40;;;13.80;84.70;;;;;;5039034;28;20181;-63
2022/05/13 02:54:40;;;;;;;2.63;1.58;;;13.80;85.10;;;;;;5042719;28;20173;-63
2022/05/13 02:57:06;;;;;;;3.13;1.20;;;13.80;85.00;;;;;;5054477;28;20209;-63
2022/05/13 02:59:34;;;;;;;2.30;1.35;;;13.80;85.00;;;;;;5055006;28;20177;-63
2022/05/13 03:01:59;;;;;;;2.28;1.27;;;13.80;85.50;;;;;;5050687;28;20264;-63
2022/05/13 03:04:25;;;;;;;1.90;1.23;;;13.90;85.70;;;;;;5074975;28;20230;-62
2022/05/13 03:06:51;;;;;;;1.48;1.17;;;13.90;85.70;;;;;;5048578;28;20185;-63
2022/05/13 03:09:17;;;;;;;2.40;1.20;;;13.90;86.00;;;;;;5049711;28;20172;-63
2022/05/13 03:11:43;;;;;;;2.78;1.10;;;13.90;86.30;;;;;;5054870;28;20193;-62
2022/05/13 03:14:11;;;;;;;2.67;0.95;;;13.90;87.00;;;;;;5046761;28;20186;-63
2022/05/13 03:16:37;;;;;;;2.97;1.17;;;13.90;87.20;;;;;;5059872;28;20208;-63
2022/05/13 03:19:03;;;;;;;2.88;1.00;;;13.90;86.20;;;;;;5048105;28;20232;-64
2022/05/13 03:21:29;;;;;;;2.05;1.17;;;13.90;86.10;;;;;;5048624;28;20182;-65
2022/05/13 03:23:54;;;;;;;2.20;1.10;;;14.00;86.40;;;;;;5054411;28;20182;-63
2022/05/13 03:26:24;;;;;;;2.88;1.02;;;14.00;86.50;;;;;;5043763;28;20161;-63
2022/05/13 03:28:50;;;;;;;3.92;1.05;;;14.00;86.70;;;;;;5043689;28;20288;-65
2022/05/13 03:31:16;;;;;;;3.63;1.30;;;14.00;86.60;;;;;;5048397;28;20464;-66
2022/05/13 03:33:44;;;;;;;4.43;1.10;;;14.00;86.70;;;;;;5067161;28;20264;-65
2022/05/13 03:36:12;;;;;;;2.53;1.20;;;14.10;86.60;;;;;;5054452;28;20366;-63
2022/05/13 03:38:38;;;;;;;2.35;1.02;;;14.10;86.60;;;;;;5059452;28;20232;-63
2022/05/13 03:41:03;;;;;;;1.92;1.25;;;14.10;86.60;;;;;;5045332;28;20182;-64
2022/05/13 03:43:29;;;;;;;1.95;1.00;;;14.20;86.50;;;;;;5073767;28;20185;-63
2022/05/13 03:45:54;;;;;;;3.55;0.90;;;14.20;86.30;;;;;;5051055;28;20428;-64
2022/05/13 03:48:22;;;;;;;1.55;0.90;;;14.20;86.00;;;;;;5036741;28;20202;-62
2022/05/13 03:50:50;;;;;;;2.92;0.95;;;14.20;85.60;;;;;;5042766;28;20284;-63
2022/05/13 03:53:18;;;;;;;1.88;0.90;;;14.20;85.40;;;;;;5074770;28;20207;-64
2022/05/13 03:55:45;;;;;;;3.05;0.90;;;14.20;85.30;;;;;;5041909;28;20176;-64
2022/05/13 03:58:14;;;;;;;3.53;1.35;;;14.20;85.00;;;;;;5036313;28;20221;-63
2022/05/13 04:00:39;;;;;;;3.70;1.10;;;14.20;85.10;;;;;;5053675;28;20185;-63
2022/05/13 04:03:05;;;;;;;1.77;1.02;;;14.10;84.70;;;;;;5070544;28;20278;-64
2022/05/13 04:10:59;;;;;;;2.42;0.90;;;14.00;84.40;;;;;;5035492;28;20266;-63
2022/05/13 04:16:11;;;;;;;1.95;1.00;;;13.90;84.30;;;;;;5041431;28;20289;-64
2022/05/13 04:18:44;;;;;;;2.35;0.93;;;13.90;84.30;;;;;;5082889;28;20209;-64
2022/05/13 04:21:19;;;;;;;1.63;0.80;;;13.80;84.60;;;;;;5056754;28;20208;-64
2022/05/13 04:23:49;;;;;;;2.40;1.20;;;13.90;84.60;;;;;;5054170;28;20161;-64
2022/05/13 04:26:18;;;;;;;3.40;1.00;;;13.80;84.60;;;;;;5065843;28;20232;-65
2022/05/13 04:28:46;;;;;;;2.45;1.25;;;13.80;85.40;;;;;;5034265;28;20200;-64
2022/05/13 04:31:17;;;;;;;4.53;1.67;;;13.80;84.80;;;;;;5043882;28;20224;-64
2022/05/13 04:33:48;;;;;;;2.47;1.10;;;13.80;85.00;;;;;;5054041;28;20177;-64
2022/05/13 04:36:16;;;;;;;1.58;1.17;;;13.80;84.80;;;;;;5053070;28;20242;-64
2022/05/13 04:38:46;;;;;;;3.72;1.30;;;13.80;85.30;;;;;;5053693;28;20271;-65
2022/05/13 04:43:58;;;;;;;2.42;1.13;;;13.80;84.90;;;;;;5063981;28;20215;-66
2022/05/13 04:46:26;;;;;;;2.97;1.10;;;13.90;84.90;;;;;;5053563;28;20181;-65
2022/05/13 04:48:54;;;;;;;1.60;1.08;;;13.90;85.00;;;;;;5046336;28;20202;-66
2022/05/13 04:51:21;;;;;;;3.58;1.35;;;13.90;85.00;;;;;;5037857;28;20180;-66
2022/05/13 04:53:51;;;;;;;4.55;1.27;;;14.00;85.00;;;;;;5053101;28;20223;-65
2022/05/13 04:56:20;;;;;;;2.85;1.13;;;14.00;85.10;;;;;;5052833;28;20177;-63
2022/05/13 04:58:49;;;;;;;4.53;1.17;;;14.00;85.00;;;;;;5052742;28;20236;-66
2022/05/13 05:01:16;;;;;;;3.63;0.95;;;14.10;84.90;;;;;;5052986;28;20177;-66
2022/05/13 05:03:43;;;;;;;3.78;1.17;;;14.00;84.90;;;;;;5053117;28;20216;-66
2022/05/13 05:06:10;;;;;;;2.05;1.10;;;14.00;84.70;;;;;;5043980;28;20186;-66
2022/05/13 05:08:39;;;;;;;1.63;0.90;;;14.10;84.70;;;;;;5062395;28;20247;-64
2022/05/13 05:11:07;;;;;;;1.65;0.90;;;14.10;84.70;;;;;;5054064;28;20173;-66
2022/05/13 05:13:39;;;;;;;5.20;1.20;;;14.10;84.80;;;;;;5042746;28;20178;-64
2022/05/13 05:16:06;;;;;;;3.88;1.20;;;14.10;84.80;;;;;;5045687;28;20204;-66
2022/05/13 05:18:38;;;;;;;3.40;1.27;;;14.20;85.00;;;;;;5057197;28;20201;-67
2022/05/13 05:21:05;;;;;;;2.97;1.38;;;14.20;84.90;;;;;;5057972;28;20226;-66
2022/05/13 05:23:35;;;;;;;3.47;1.10;;;14.20;85.00;;;;;;5079240;28;20180;-66
2022/05/13 05:26:02;;;;;;;1.90;0.90;;;14.20;85.00;;;;;;5056751;28;20196;-66
2022/05/13 05:28:28;;;;;;;3.05;1.10;;;14.20;84.80;;;;;;5056623;28;20211;-66
2022/05/13 05:31:01;;;;;;;3.20;1.20;;;14.30;85.80;;;;;;5056288;28;20252;-65
2022/05/13 05:33:27;;;;;;;2.05;1.08;;;14.30;85.20;;;;;;5045726;28;20170;-65
2022/05/13 05:35:53;;;;;;;3.10;1.10;;;14.30;85.30;;;;;;5045978;28;20208;-65
2022/05/13 05:38:18;;;;;;;2.65;0.95;;;14.30;85.40;;;;;;5040889;28;22554;-66
2022/05/13 05:40:46;;;;;;;4.82;1.27;;;14.30;85.70;;;;;;5051033;28;20192;-66
2022/05/13 05:43:16;;;;;;;3.88;1.45;;;14.30;85.80;;;;;;5053578;28;20292;-65
2022/05/13 05:45:47;;;;;;;2.78;1.25;;;14.40;86.10;;;;;;5055371;28;20161;-66
2022/05/13 05:48:15;;;;;;;3.90;1.10;;;14.40;86.10;;;;;;5055295;28;20193;-66
2022/05/13 05:50:41;;;;;;;5.15;1.20;;;14.40;86.10;;;;;;5048702;28;20180;-67
2022/05/13 05:53:09;;;;;;;4.05;1.23;;;14.40;86.30;;;;;;5055971;28;20182;-64
2022/05/13 05:58:22;;;;;;;3.67;1.23;;;14.50;86.60;;;;;;5055782;28;20192;-65
2022/05/13 06:00:50;;;;;;;2.85;1.25;;;14.50;86.90;;;;;;5055780;28;20189;-65
2022/05/13 06:03:17;;;;;;;3.65;1.27;;;14.50;86.80;;;;;;5055775;28;20197;-65
2022/05/13 06:05:46;;;;;;;3.72;1.10;;;14.60;87.20;;;;;;5055904;28;20174;-65
2022/05/13 06:08:14;;;;;;;3.15;1.25;;;14.60;87.30;;;;;;5055905;28;20208;-64
2022/05/13 06:10:42;;;;;;;3.35;1.30;;;14.60;87.50;;;;;;5051855;28;20209;-65
2022/05/13 06:13:10;;;;;;;4.13;1.30;;;14.70;87.60;;;;;;5037457;28;20237;-63
2022/05/13 06:15:38;;;;;;;3.50;1.08;;;14.70;87.50;;;;;;5054646;28;20170;-65
2022/05/13 06:18:04;;;;;;;3.28;1.38;;;14.70;87.60;;;;;;5055574;28;20234;-66
2022/05/13 06:20:31;;;;;;;3.67;1.33;;;14.80;87.80;;;;;;5046789;28;20202;-65
2022/05/13 06:22:57;;;;;;;3.97;1.20;;;14.80;87.80;;;;;;5052488;28;20174;-64
2022/05/13 06:25:23;;;;;;;3.90;1.50;;;14.80;87.90;;;;;;5053735;28;20204;-66
2022/05/13 06:27:53;;;;;;;4.43;1.20;;;14.80;88.10;;;;;;5047421;28;20201;-67
2022/05/13 06:30:23;;;;;;;4.35;1.35;;;14.90;88.10;;;;;;5054830;28;20169;-67
